Time;durP1;ratioP1;P1;durP2;ratioP2;P2;SDS_P1;SDS_P2;PMS_P1;PMS_P2;Temp;Humidity;BMP_temperature;BMP_pressure;BME280_temperature;BME280_humidity;BME280_pressure;Samples;Min_cycle;Max_cycle;Signal;HPM_P1;HPM_P2
2023/03/02 00:01:09;;;;;;;43.88;21.23;;;;;;;;;;5049761;28;20442;-76
2023/03/02 00:03:40;;;;;;;44.95;21.23;;;;;;;;;;5052455;28;20044;-77
2023/03/02 00:06:07;;;;;;;44.78;20.35;;;;;;;;;;5052325;28;20033;-76
2023/03/02 00:08:33;;;;;;;48.90;21.45;;;;;;;;;;5052476;28;20462;-76
2023/03/02 00:11:00;;;;;;;47.60;22.20;;;;;;;;;;5053351;28;20051;-76
2023/03/02 00:13:28;;;;;;;48.67;21.90;;;;;;;;;;5053336;28;20558;-76
2023/03/02 00:15:54;;;;;;;49.00;22.20;;;;;;;;;;5053264;28;20041;-76
2023/03/02 00:18:20;;;;;;;46.17;20.83;;;;;;;;;;5053115;28;20051;-76
2023/03/02 00:20:46;;;;;;;44.50;20.63;;;;;;;;;;5051766;28;20049;-76
2023/03/02 00:23:14;;;;;;;48.55;21.65;;;;;;;;;;5051614;28;20693;-76
2023/03/02 00:25:40;;;;;;;48.13;20.35;;;;;;;;;;5051847;28;20044;-76
2023/03/02 00:28:06;;;;;;;48.30;21.15;;;;;;;;;;5051858;28;20373;-76
2023/03/02 00:30:33;;;;;;;49.10;21.85;;;;;;;;;;5051890;28;20077;-75
2023/03/02 00:32:59;;;;;;;44.33;20.67;;;;;;;;;;5038584;28;20506;-75
2023/03/02 00:35:25;;;;;;;46.65;21.08;;;;;;;;;;5051252;28;20407;-76
2023/03/02 00:37:52;;;;;;;47.08;21.17;;;;;;;;;;5052886;28;20045;-76
2023/03/02 00:40:18;;;;;;;43.80;21.67;;;;;;;;;;5052385;28;20045;-76
2023/03/02 00:42:44;;;;;;;43.50;20.15;;;;;;;;;;5052780;28;20437;-76
2023/03/02 00:45:10;;;;;;;44.40;19.52;;;;;;;;;;5051630;28;20045;-76
2023/03/02 00:47:37;;;;;;;42.70;20.38;;;;;;;;;;5068196;28;20167;-77
2023/03/02 00:50:04;;;;;;;43.72;19.63;;;;;;;;;;5051390;28;20059;-76
2023/03/02 00:52:30;;;;;;;39.55;18.88;;;;;;;;;;5051261;28;20033;-75
2023/03/02 00:54:56;;;;;;;41.75;19.83;;;;;;;;;;5034930;28;20052;-75
2023/03/02 00:57:22;;;;;;;41.13;19.27;;;;;;;;;;5035042;28;20403;-76
2023/03/02 00:59:49;;;;;;;39.00;19.65;;;;;;;;;;5052775;28;20055;-76
2023/03/02 01:02:15;;;;;;;43.67;20.05;;;;;;;;;;5031675;28;20095;-76
2023/03/02 01:04:42;;;;;;;40.13;18.90;;;;;;;;;;5052877;28;20041;-76
2023/03/02 01:07:09;;;;;;;40.42;19.23;;;;;;;;;;5052566;28;20079;-76
2023/03/02 01:09:35;;;;;;;38.70;19.33;;;;;;;;;;5052230;28;20045;-76
2023/03/02 01:12:02;;;;;;;41.25;19.85;;;;;;;;;;5052591;28;20068;-75
2023/03/02 01:14:28;;;;;;;43.30;20.63;;;;;;;;;;5034322;28;20040;-75
2023/03/02 01:16:54;;;;;;;42.30;20.02;;;;;;;;;;5051170;28;20119;-75
2023/03/02 01:19:21;;;;;;;39.47;18.80;;;;;;;;;;5050887;28;20075;-75
2023/03/02 01:21:47;;;;;;;39.15;18.90;;;;;;;;;;5050965;28;20095;-76
2023/03/02 01:24:13;;;;;;;38.58;19.25;;;;;;;;;;5052213;28;20523;-76
2023/03/02 01:26:39;;;;;;;41.55;20.05;;;;;;;;;;5050741;28;20044;-75
2023/03/02 01:29:05;;;;;;;38.20;19.13;;;;;;;;;;5051407;28;20514;-76
2023/03/02 01:31:31;;;;;;;44.22;19.75;;;;;;;;;;5050556;28;20043;-75
2023/03/02 01:33:57;;;;;;;41.70;19.52;;;;;;;;;;5051265;28;20041;-76
2023/03/02 01:36:23;;;;;;;42.15;19.42;;;;;;;;;;5033932;28;20091;-76
2023/03/02 01:38:50;;;;;;;41.92;19.45;;;;;;;;;;5052236;28;20041;-76
2023/03/02 01:41:16;;;;;;;43.30;20.00;;;;;;;;;;5054219;28;20051;-76
2023/03/02 01:43:42;;;;;;;44.88;20.63;;;;;;;;;;5055062;28;20033;-76
2023/03/02 01:46:08;;;;;;;43.25;19.20;;;;;;;;;;5054714;28;20045;-76
2023/03/02 01:48:38;;;;;;;43.42;19.10;;;;;;;;;;5054858;28;20547;-75
2023/03/02 01:51:06;;;;;;;44.40;20.25;;;;;;;;;;5054834;28;20044;-76
2023/03/02 01:53:33;;;;;;;41.10;19.83;;;;;;;;;;5088025;28;20044;-76
2023/03/02 01:56:00;;;;;;;46.10;20.60;;;;;;;;;;5054559;28;20043;-75
2023/03/02 01:58:27;;;;;;;45.08;20.13;;;;;;;;;;5054354;28;20040;-76
2023/03/02 02:00:54;;;;;;;46.20;20.73;;;;;;;;;;5050777;28;20041;-76
2023/03/02 02:03:23;;;;;;;47.58;21.00;;;;;;;;;;5054289;28;20037;-76
2023/03/02 02:05:55;;;;;;;42.50;19.73;;;;;;;;;;5055637;28;20048;-75
2023/03/02 02:08:22;;;;;;;43.17;19.67;;;;;;;;;;5037478;28;20045;-76
2023/03/02 02:10:48;;;;;;;50.70;21.70;;;;;;;;;;5055478;28;20048;-76
2023/03/02 02:13:15;;;;;;;49.22;20.70;;;;;;;;;;5055748;28;20049;-75
2023/03/02 02:15:41;;;;;;;54.17;22.45;;;;;;;;;;5055296;28;20623;-76
2023/03/02 02:18:07;;;;;;;49.78;22.20;;;;;;;;;;5020779;28;20037;-76
2023/03/02 02:20:38;;;;;;;54.55;22.40;;;;;;;;;;5052210;28;20787;-75
2023/03/02 02:23:16;;;;;;;56.25;22.95;;;;;;;;;;5055399;28;20454;-76
2023/03/02 02:25:52;;;;;;;55.95;22.98;;;;;;;;;;5053852;28;20055;-76
2023/03/02 02:28:22;;;;;;;55.55;22.90;;;;;;;;;;5054024;28;20045;-75
2023/03/02 02:30:51;;;;;;;48.45;21.98;;;;;;;;;;5053939;28;20045;-76
2023/03/02 02:33:20;;;;;;;56.75;23.25;;;;;;;;;;5046217;28;20095;-76
2023/03/02 02:35:46;;;;;;;52.70;22.58;;;;;;;;;;5036918;28;20077;-75
2023/03/02 02:38:13;;;;;;;58.88;23.63;;;;;;;;;;5054245;28;20052;-76
2023/03/02 02:40:45;;;;;;;57.83;23.95;;;;;;;;;;5054765;28;20036;-76
2023/03/02 02:43:13;;;;;;;56.88;24.05;;;;;;;;;;5054931;28;20102;-75
2023/03/02 02:45:39;;;;;;;52.65;23.63;;;;;;;;;;5053375;28;20372;-76
2023/03/02 02:48:08;;;;;;;57.28;24.55;;;;;;;;;;5053586;28;20147;-76
2023/03/02 02:50:36;;;;;;;56.45;23.63;;;;;;;;;;5053559;28;20119;-76
2023/03/02 02:53:14;;;;;;;62.85;24.52;;;;;;;;;;5053451;28;20056;-76
2023/03/02 02:55:41;;;;;;;55.25;23.33;;;;;;;;;;5053197;28;20033;-76
2023/03/02 02:58:27;;;;;;;56.95;24.00;;;;;;;;;;5053671;28;20380;-76
2023/03/02 03:00:54;;;;;;;55.25;23.48;;;;;;;;;;5048900;28;20064;-76
2023/03/02 03:03:29;;;;;;;58.78;24.08;;;;;;;;;;5036168;28;20075;-76
2023/03/02 03:05:59;;;;;;;57.08;22.98;;;;;;;;;;5059377;28;20468;-76
2023/03/02 03:08:40;;;;;;;56.33;23.75;;;;;;;;;;5045688;28;20491;-76
2023/03/02 03:11:07;;;;;;;56.75;23.58;;;;;;;;;;5052965;28;20044;-76
2023/03/02 03:13:33;;;;;;;57.97;24.10;;;;;;;;;;5052619;28;20037;-76
2023/03/02 03:16:01;;;;;;;59.28;24.17;;;;;;;;;;5052971;28;20037;-76
2023/03/02 03:18:27;;;;;;;58.50;23.60;;;;;;;;;;5054462;28;20113;-75
2023/03/02 03:20:53;;;;;;;62.33;24.13;;;;;;;;;;5052586;28;20049;-76
2023/03/02 03:23:19;;;;;;;56.33;24.05;;;;;;;;;;5052697;28;20111;-76
2023/03/02 03:25:45;;;;;;;59.22;23.70;;;;;;;;;;5054074;28;20069;-76
2023/03/02 03:28:11;;;;;;;55.53;23.25;;;;;;;;;;5053883;28;20048;-76
2023/03/02 03:30:37;;;;;;;64.30;23.38;;;;;;;;;;5086156;28;20045;-76
2023/03/02 03:33:03;;;;;;;62.20;24.23;;;;;;;;;;5052943;28;20487;-76
2023/03/02 03:35:29;;;;;;;57.30;23.05;;;;;;;;;;5054143;28;20049;-76
2023/03/02 03:37:56;;;;;;;56.80;23.50;;;;;;;;;;5052637;28;20422;-75
2023/03/02 03:40:22;;;;;;;55.28;23.70;;;;;;;;;;5036213;28;20051;-75
2023/03/02 03:42:48;;;;;;;42.72;15.95;;;;;;;;;;5053453;28;20040;-75
2023/03/02 03:45:14;;;;;;;51.35;21.95;;;;;;;;;;5052760;28;20056;-76
2023/03/02 03:47:40;;;;;;;61.83;24.73;;;;;;;;;;5067544;28;20080;-76
2023/03/02 03:50:06;;;;;;;59.08;24.05;;;;;;;;;;5053872;28;20033;-75
2023/03/02 03:52:32;;;;;;;59.80;24.33;;;;;;;;;;5052415;28;20037;-76
2023/03/02 03:54:59;;;;;;;50.40;21.65;;;;;;;;;;5053354;28;20029;-76
2023/03/02 03:57:26;;;;;;;57.20;23.90;;;;;;;;;;5052328;28;20041;-76
2023/03/02 03:59:53;;;;;;;60.03;23.38;;;;;;;;;;5051961;28;20037;-76
2023/03/02 04:02:19;;;;;;;56.40;24.08;;;;;;;;;;5051895;28;20086;-76
2023/03/02 04:04:45;;;;;;;57.45;23.08;;;;;;;;;;5085023;28;20048;-76
2023/03/02 04:07:11;;;;;;;45.28;18.25;;;;;;;;;;5052224;28;20541;-75
2023/03/02 04:09:38;;;;;;;54.53;21.88;;;;;;;;;;5052015;28;20041;-75
2023/03/02 04:12:04;;;;;;;46.85;17.35;;;;;;;;;;5052118;28;20593;-77
2023/03/02 04:14:30;;;;;;;51.40;20.70;;;;;;;;;;5035469;28;20041;-76
2023/03/02 04:16:56;;;;;;;49.10;20.17;;;;;;;;;;5035106;28;20053;-76
2023/03/02 04:19:23;;;;;;;52.17;22.17;;;;;;;;;;5052072;28;20427;-76
2023/03/02 04:21:51;;;;;;;55.17;21.02;;;;;;;;;;5034838;28;20049;-76
2023/03/02 04:24:18;;;;;;;52.50;21.23;;;;;;;;;;5051780;28;20099;-76
2023/03/02 04:26:44;;;;;;;56.92;21.88;;;;;;;;;;5052911;28;20044;-76
2023/03/02 04:29:11;;;;;;;55.63;22.42;;;;;;;;;;5052980;28;20554;-76
2023/03/02 04:31:38;;;;;;;59.55;22.52;;;;;;;;;;5051849;28;20132;-76
2023/03/02 04:34:04;;;;;;;50.38;20.70;;;;;;;;;;5052569;28;20037;-76
2023/03/02 04:36:32;;;;;;;49.22;20.92;;;;;;;;;;5051981;28;20475;-75
2023/03/02 04:38:58;;;;;;;52.35;21.30;;;;;;;;;;5035013;28;20476;-75
2023/03/02 04:41:24;;;;;;;59.25;22.65;;;;;;;;;;5051511;28;20044;-75
2023/03/02 04:43:51;;;;;;;35.40;14.35;;;;;;;;;;5052455;28;20536;-75
2023/03/02 04:46:22;;;;;;;55.08;21.38;;;;;;;;;;5052668;28;20467;-75
2023/03/02 04:48:48;;;;;;;54.47;21.92;;;;;;;;;;5051391;28;20083;-76
2023/03/02 04:51:25;;;;;;;64.07;24.02;;;;;;;;;;5051533;28;20044;-76
2023/03/02 04:53:52;;;;;;;58.20;22.75;;;;;;;;;;5067726;28;20376;-76
2023/03/02 04:56:18;;;;;;;56.88;21.45;;;;;;;;;;5051550;28;20039;-76
2023/03/02 04:58:44;;;;;;;56.97;22.33;;;;;;;;;;5051050;28;20052;-76
2023/03/02 05:01:11;;;;;;;60.53;23.40;;;;;;;;;;5042565;28;20084;-75
2023/03/02 05:03:37;;;;;;;62.97;23.27;;;;;;;;;;5050816;28;20043;-76
2023/03/02 05:06:03;;;;;;;55.85;19.55;;;;;;;;;;5060842;28;20414;-76
2023/03/02 05:08:30;;;;;;;63.60;22.25;;;;;;;;;;5051278;28;20056;-76
2023/03/02 05:10:57;;;;;;;62.50;22.10;;;;;;;;;;5050819;28;20128;-76
2023/03/02 05:13:23;;;;;;;54.55;20.05;;;;;;;;;;5050953;28;20045;-76
2023/03/02 05:15:50;;;;;;;56.08;22.02;;;;;;;;;;5049825;28;20045;-76
2023/03/02 05:18:16;;;;;;;33.08;12.90;;;;;;;;;;5051167;28;20049;-76
2023/03/02 05:20:42;;;;;;;57.00;20.90;;;;;;;;;;5050661;28;20053;-75
2023/03/02 05:23:10;;;;;;;51.25;18.67;;;;;;;;;;5056578;28;20048;-76
2023/03/02 05:25:37;;;;;;;52.90;21.73;;;;;;;;;;5052360;28;20064;-76
2023/03/02 05:28:04;;;;;;;55.53;20.77;;;;;;;;;;5076396;28;20132;-76
2023/03/02 05:30:36;;;;;;;65.82;22.85;;;;;;;;;;5051869;28;20120;-76
2023/03/02 05:33:02;;;;;;;66.28;23.30;;;;;;;;;;5056641;28;20094;-76
2023/03/02 05:35:28;;;;;;;83.40;23.50;;;;;;;;;;5050890;28;20041;-76
2023/03/02 05:37:54;;;;;;;88.80;23.23;;;;;;;;;;5050565;28;20033;-76
2023/03/02 05:40:20;;;;;;;101.28;25.50;;;;;;;;;;5014835;28;20049;-76
2023/03/02 05:42:47;;;;;;;114.38;22.95;;;;;;;;;;5050428;28;20119;-76
2023/03/02 05:45:17;;;;;;;109.40;23.23;;;;;;;;;;5050514;28;20056;-76
2023/03/02 05:47:43;;;;;;;122.45;22.83;;;;;;;;;;5050745;28;20045;-75
2023/03/02 05:50:09;;;;;;;109.75;23.20;;;;;;;;;;5050538;28;20047;-75
2023/03/02 05:52:35;;;;;;;107.90;23.67;;;;;;;;;;5051365;28;20045;-75
2023/03/02 05:55:02;;;;;;;77.25;21.95;;;;;;;;;;5050652;28;20503;-74
2023/03/02 05:57:28;;;;;;;103.15;21.77;;;;;;;;;;5034486;28;20395;-75
2023/03/02 05:59:54;;;;;;;85.20;21.63;;;;;;;;;;5050287;28;20099;-75
2023/03/02 06:02:20;;;;;;;71.45;21.80;;;;;;;;;;5039112;28;20464;-74
2023/03/02 06:04:46;;;;;;;88.50;21.90;;;;;;;;;;5050936;28;20041;-75
2023/03/02 06:07:12;;;;;;;80.03;21.88;;;;;;;;;;5051051;28;20403;-74
2023/03/02 06:09:39;;;;;;;105.00;22.70;;;;;;;;;;5050854;28;20060;-74
2023/03/02 06:12:05;;;;;;;79.97;21.77;;;;;;;;;;5051717;28;20539;-74
2023/03/02 06:14:31;;;;;;;68.70;20.65;;;;;;;;;;5059674;28;20083;-74
2023/03/02 06:16:57;;;;;;;69.93;19.90;;;;;;;;;;5067778;28;20124;-72
2023/03/02 06:19:24;;;;;;;77.63;21.67;;;;;;;;;;5061772;28;20419;-72
2023/03/02 06:21:50;;;;;;;94.22;20.50;;;;;;;;;;5064974;28;20037;-74
2023/03/02 06:24:16;;;;;;;72.65;21.00;;;;;;;;;;5065703;28;20052;-74
2023/03/02 06:26:42;;;;;;;74.72;21.77;;;;;;;;;;5052572;28;20495;-73
2023/03/02 06:29:08;;;;;;;74.53;20.42;;;;;;;;;;5053868;28;20033;-75
2023/03/02 06:31:35;;;;;;;88.55;21.60;;;;;;;;;;5055520;28;20078;-75
2023/03/02 06:34:01;;;;;;;107.20;21.60;;;;;;;;;;5053788;28;20041;-75
2023/03/02 06:36:27;;;;;;;90.93;22.40;;;;;;;;;;5054189;28;20045;-75
2023/03/02 06:38:53;;;;;;;84.80;23.40;;;;;;;;;;5053730;28;20040;-75
2023/03/02 06:41:20;;;;;;;77.25;21.63;;;;;;;;;;5053833;28;20041;-75
2023/03/02 06:43:46;;;;;;;80.22;21.38;;;;;;;;;;5053721;28;20047;-74
2023/03/02 06:46:12;;;;;;;96.57;22.35;;;;;;;;;;5036777;28;20037;-75
2023/03/02 06:48:38;;;;;;;138.18;24.33;;;;;;;;;;5053559;28;20051;-75
2023/03/02 06:51:06;;;;;;;95.95;23.25;;;;;;;;;;5053382;28;20052;-75
2023/03/02 06:53:33;;;;;;;69.20;23.25;;;;;;;;;;5054859;28;20044;-75
2023/03/02 06:55:59;;;;;;;77.07;23.30;;;;;;;;;;5036575;28;20047;-76
2023/03/02 06:58:25;;;;;;;73.30;22.30;;;;;;;;;;5053330;28;20029;-75
2023/03/02 07:00:51;;;;;;;63.00;22.67;;;;;;;;;;5046040;28;20042;-76
2023/03/02 07:03:17;;;;;;;63.92;24.38;;;;;;;;;;5049350;28;20395;-76
2023/03/02 07:05:43;;;;;;;80.28;22.88;;;;;;;;;;5053777;28;20517;-75
2023/03/02 07:08:09;;;;;;;77.60;23.58;;;;;;;;;;5054354;28;20103;-75
2023/03/02 07:10:36;;;;;;;73.78;22.80;;;;;;;;;;5053389;28;20120;-75
2023/03/02 07:13:02;;;;;;;115.40;24.30;;;;;;;;;;5070309;28;20047;-75
2023/03/02 07:15:28;;;;;;;75.30;23.40;;;;;;;;;;5054507;28;20051;-75
2023/03/02 07:17:54;;;;;;;88.32;23.58;;;;;;;;;;5054371;28;20487;-75
2023/03/02 07:20:21;;;;;;;93.32;25.25;;;;;;;;;;5053744;28;20443;-75
2023/03/02 07:22:47;;;;;;;78.00;25.08;;;;;;;;;;5054509;28;20047;-75
2023/03/02 07:25:13;;;;;;;84.40;23.48;;;;;;;;;;5052653;28;20041;-75
2023/03/02 07:27:39;;;;;;;102.30;23.50;;;;;;;;;;5036521;28;20080;-75
2023/03/02 07:30:06;;;;;;;109.63;24.80;;;;;;;;;;5052716;28;20045;-75
2023/03/02 07:32:32;;;;;;;89.72;23.10;;;;;;;;;;5052821;28;20576;-75
2023/03/02 07:34:59;;;;;;;95.20;25.13;;;;;;;;;;5052758;28;20410;-75
2023/03/02 07:37:25;;;;;;;110.53;24.27;;;;;;;;;;5052367;28;20498;-75
2023/03/02 07:39:51;;;;;;;117.60;25.67;;;;;;;;;;5052246;28;20057;-75
2023/03/02 07:42:17;;;;;;;101.80;24.88;;;;;;;;;;5052582;28;20095;-75
2023/03/02 07:44:43;;;;;;;110.10;24.58;;;;;;;;;;5052567;28;20040;-75
2023/03/02 07:47:09;;;;;;;103.03;23.50;;;;;;;;;;5052450;28;20083;-76
2023/03/02 07:49:35;;;;;;;81.28;22.92;;;;;;;;;;5052664;28;20471;-76
2023/03/02 07:52:02;;;;;;;91.13;23.95;;;;;;;;;;5036573;28;20056;-75
2023/03/02 07:54:29;;;;;;;93.15;21.75;;;;;;;;;;5053643;28;20123;-76
2023/03/02 07:56:56;;;;;;;123.88;23.65;;;;;;;;;;5052702;28;20410;-76
2023/03/02 07:59:22;;;;;;;92.93;23.30;;;;;;;;;;5053485;28;20063;-75
2023/03/02 08:01:48;;;;;;;95.80;22.50;;;;;;;;;;5024609;28;20526;-75
2023/03/02 08:04:14;;;;;;;84.30;22.23;;;;;;;;;;5053141;28;20040;-75
2023/03/02 08:06:40;;;;;;;91.55;22.38;;;;;;;;;;5035432;28;20045;-75
2023/03/02 08:09:07;;;;;;;65.03;18.73;;;;;;;;;;5051846;28;20052;-75
2023/03/02 08:11:33;;;;;;;72.93;23.67;;;;;;;;;;5052166;28;20049;-75
2023/03/02 08:14:02;;;;;;;74.90;21.17;;;;;;;;;;5051967;28;20049;-75
2023/03/02 08:16:29;;;;;;;70.68;21.98;;;;;;;;;;5051780;28;20067;-75
2023/03/02 08:18:55;;;;;;;69.40;22.48;;;;;;;;;;5035335;28;20040;-75
2023/03/02 08:21:23;;;;;;;66.43;22.10;;;;;;;;;;5015332;28;20077;-75
2023/03/02 08:23:49;;;;;;;71.30;21.42;;;;;;;;;;5042440;28;20049;-75
2023/03/02 08:26:16;;;;;;;63.47;21.23;;;;;;;;;;5052630;28;20033;-75
2023/03/02 08:28:42;;;;;;;65.95;21.83;;;;;;;;;;5052097;28;20051;-76
2023/03/02 08:31:09;;;;;;;67.25;21.85;;;;;;;;;;5051588;28;20067;-76
2023/03/02 08:33:35;;;;;;;71.22;22.35;;;;;;;;;;5053089;28;20395;-76
2023/03/02 08:36:06;;;;;;;67.63;21.85;;;;;;;;;;5034745;28;20041;-76
2023/03/02 08:38:33;;;;;;;72.75;22.80;;;;;;;;;;5034886;28;20033;-76
2023/03/02 08:41:03;;;;;;;79.75;21.95;;;;;;;;;;5051509;28;20052;-76
2023/03/02 08:43:29;;;;;;;73.07;21.67;;;;;;;;;;5051423;28;20522;-75
2023/03/02 08:45:56;;;;;;;67.25;22.65;;;;;;;;;;5052376;28;20037;-76
2023/03/02 08:48:23;;;;;;;69.03;22.40;;;;;;;;;;5052557;28;20036;-76
2023/03/02 08:51:00;;;;;;;70.88;20.92;;;;;;;;;;5052334;28;20387;-76
2023/03/02 08:53:26;;;;;;;78.40;21.42;;;;;;;;;;5052581;28;20388;-76
2023/03/02 08:55:52;;;;;;;69.95;22.20;;;;;;;;;;5051285;28;20124;-76
2023/03/02 08:58:19;;;;;;;55.60;21.10;;;;;;;;;;5051112;28;20041;-76
2023/03/02 09:00:45;;;;;;;49.03;19.58;;;;;;;;;;5048103;28;20391;-76
2023/03/02 09:03:11;;;;;;;47.10;19.33;;;;;;;;;;5051341;28;20533;-76
2023/03/02 09:05:37;;;;;;;44.10;17.48;;;;;;;;;;5051315;28;20045;-76
2023/03/02 09:08:03;;;;;;;46.35;18.15;;;;;;;;;;5051396;28;20103;-76
2023/03/02 09:10:29;;;;;;;55.00;20.65;;;;;;;;;;5050940;28;20045;-76
2023/03/02 09:12:55;;;;;;;49.03;20.15;;;;;;;;;;5051285;28;20053;-76
2023/03/02 09:15:22;;;;;;;50.95;19.70;;;;;;;;;;5050638;28;20106;-75
2023/03/02 09:17:48;;;;;;;50.22;19.55;;;;;;;;;;5052347;28;20040;-75
2023/03/02 09:20:14;;;;;;;45.03;18.38;;;;;;;;;;5051601;28;20053;-75
2023/03/02 09:22:46;;;;;;;45.85;19.70;;;;;;;;;;5051191;28;20120;-75
2023/03/02 09:25:12;;;;;;;43.90;19.20;;;;;;;;;;5051098;28;20052;-76
2023/03/02 09:27:38;;;;;;;40.78;18.95;;;;;;;;;;5052194;28;20055;-75
2023/03/02 09:30:05;;;;;;;41.20;19.42;;;;;;;;;;5052276;28;20033;-76
2023/03/02 09:32:31;;;;;;;44.47;19.77;;;;;;;;;;5034359;28;20044;-76
2023/03/02 09:34:57;;;;;;;41.63;18.38;;;;;;;;;;5052223;28;20128;-75
2023/03/02 09:37:23;;;;;;;40.80;17.92;;;;;;;;;;5051717;28;20120;-76
2023/03/02 09:39:49;;;;;;;42.65;19.30;;;;;;;;;;5050937;28;20063;-76
2023/03/02 09:42:22;;;;;;;41.20;18.67;;;;;;;;;;5050646;28;20045;-76
2023/03/02 09:45:00;;;;;;;39.47;18.70;;;;;;;;;;5034292;28;20049;-76
2023/03/02 09:47:26;;;;;;;38.65;18.58;;;;;;;;;;5067263;28;20102;-76
2023/03/02 09:50:02;;;;;;;40.00;17.00;;;;;;;;;;5050865;28;20076;-76
2023/03/02 09:52:43;;;;;;;39.97;18.52;;;;;;;;;;5051740;28;20118;-76
2023/03/02 09:55:12;;;;;;;41.38;18.85;;;;;;;;;;5052016;28;20487;-76
2023/03/02 09:57:38;;;;;;;39.80;18.75;;;;;;;;;;5051670;28;20418;-76
2023/03/02 10:00:12;;;;;;;35.83;15.75;;;;;;;;;;5049419;28;20041;-76
2023/03/02 10:02:41;;;;;;;38.33;17.58;;;;;;;;;;5044325;28;20122;-75
2023/03/02 10:05:13;;;;;;;38.17;18.75;;;;;;;;;;5054630;28;20049;-76
2023/03/02 10:07:39;;;;;;;37.60;18.65;;;;;;;;;;5054902;28;20110;-76
2023/03/02 10:10:08;;;;;;;41.15;19.60;;;;;;;;;;5056016;28;20076;-76
2023/03/02 10:12:47;;;;;;;38.65;18.45;;;;;;;;;;5054356;28;20458;-76
2023/03/02 10:15:28;;;;;;;38.15;17.83;;;;;;;;;;5055791;28;20483;-76
2023/03/02 10:17:54;;;;;;;34.40;17.02;;;;;;;;;;5054657;28;20131;-77
2023/03/02 10:20:40;;;;;;;35.55;17.50;;;;;;;;;;5053995;28;20442;-77
2023/03/02 10:23:06;;;;;;;40.33;19.30;;;;;;;;;;5053915;28;20045;-76
2023/03/02 10:25:35;;;;;;;34.33;16.73;;;;;;;;;;5054027;28;20068;-76
2023/03/02 10:28:09;;;;;;;34.47;16.80;;;;;;;;;;5054273;28;20041;-77
2023/03/02 10:30:36;;;;;;;30.95;16.85;;;;;;;;;;5053981;28;20041;-77
2023/03/02 10:33:07;;;;;;;34.47;17.35;;;;;;;;;;5055336;28;20445;-77
2023/03/02 10:35:34;;;;;;;36.42;17.70;;;;;;;;;;5055233;28;20045;-77
2023/03/02 10:38:04;;;;;;;35.78;18.10;;;;;;;;;;5053642;28;20043;-75
2023/03/02 10:40:39;;;;;;;34.33;18.42;;;;;;;;;;5037243;28;20041;-75
2023/03/02 10:43:06;;;;;;;35.65;18.38;;;;;;;;;;5055229;28;20037;-76
2023/03/02 10:45:33;;;;;;;31.95;17.75;;;;;;;;;;5054028;28;20550;-77
2023/03/02 10:47:59;;;;;;;33.15;18.08;;;;;;;;;;5053891;28;20052;-77
2023/03/02 10:50:26;;;;;;;33.10;17.77;;;;;;;;;;5037365;28;20049;-75
2023/03/02 10:52:52;;;;;;;30.13;17.55;;;;;;;;;;5053616;28;20052;-75
2023/03/02 10:55:18;;;;;;;33.22;17.58;;;;;;;;;;5053673;28;20033;-75
2023/03/02 10:57:45;;;;;;;32.60;17.58;;;;;;;;;;5053581;28;20491;-76
2023/03/02 11:00:14;;;;;;;30.73;16.52;;;;;;;;;;5052690;28;20060;-76
2023/03/02 11:02:48;;;;;;;30.98;17.40;;;;;;;;;;5044914;28;20083;-75
2023/03/02 11:05:17;;;;;;;29.75;15.65;;;;;;;;;;5037396;28;20479;-75
2023/03/02 11:07:52;;;;;;;26.45;15.27;;;;;;;;;;5053113;28;20052;-77
2023/03/02 11:10:19;;;;;;;30.88;17.83;;;;;;;;;;5053497;28;20045;-75
2023/03/02 11:12:47;;;;;;;29.67;15.77;;;;;;;;;;5051904;28;20045;-75
2023/03/02 11:15:13;;;;;;;26.05;14.07;;;;;;;;;;5054623;28;20043;-77
2023/03/02 11:17:40;;;;;;;25.65;15.98;;;;;;;;;;5053106;28;20068;-76
2023/03/02 11:20:12;;;;;;;26.63;16.17;;;;;;;;;;5052991;28;20053;-76
2023/03/02 11:23:05;;;;;;;28.55;16.38;;;;;;;;;;5053186;28;20087;-76
2023/03/02 11:25:35;;;;;;;27.15;16.77;;;;;;;;;;5052506;28;20466;-77
2023/03/02 11:28:15;;;;;;;23.48;15.40;;;;;;;;;;5054574;28;20041;-77
2023/03/02 11:30:45;;;;;;;24.65;15.68;;;;;;;;;;5036903;28;20040;-78
2023/03/02 11:33:14;;;;;;;25.30;16.10;;;;;;;;;;5054272;28;20181;-77
2023/03/02 11:35:46;;;;;;;23.38;16.38;;;;;;;;;;5054046;28;20047;-76
2023/03/02 11:38:26;;;;;;;23.20;15.02;;;;;;;;;;5052767;28;20043;-76
2023/03/02 11:40:58;;;;;;;22.33;15.27;;;;;;;;;;5053098;28;20487;-75
2023/03/02 11:43:24;;;;;;;24.48;16.20;;;;;;;;;;5054279;28;20479;-76
2023/03/02 11:46:01;;;;;;;22.67;15.15;;;;;;;;;;5052501;28;20045;-75
2023/03/02 11:48:33;;;;;;;24.60;16.00;;;;;;;;;;5053022;28;20051;-76
2023/03/02 11:51:10;;;;;;;23.75;14.88;;;;;;;;;;5052786;28;20048;-77
2023/03/02 11:53:44;;;;;;;23.38;15.02;;;;;;;;;;5064474;28;20076;-75
2023/03/02 11:56:11;;;;;;;22.80;15.60;;;;;;;;;;5056889;28;20041;-78
2023/03/02 11:58:37;;;;;;;23.10;15.32;;;;;;;;;;5052647;28;20120;-77
2023/03/02 12:01:04;;;;;;;21.88;14.60;;;;;;;;;;5027273;28;20037;-76
2023/03/02 12:03:30;;;;;;;23.75;14.65;;;;;;;;;;5051864;28;20109;-76
2023/03/02 12:06:01;;;;;;;24.10;15.25;;;;;;;;;;5054294;28;20050;-75
2023/03/02 12:08:36;;;;;;;22.50;14.68;;;;;;;;;;5052736;28;20041;-75
2023/03/02 12:11:04;;;;;;;21.33;14.50;;;;;;;;;;5066709;28;20479;-75
2023/03/02 12:13:31;;;;;;;22.17;14.95;;;;;;;;;;5052648;28;20098;-75
2023/03/02 12:15:58;;;;;;;25.95;15.43;;;;;;;;;;5053391;28;20086;-75
2023/03/02 12:18:24;;;;;;;22.73;14.88;;;;;;;;;;5052241;28;20108;-76
2023/03/02 12:21:02;;;;;;;24.10;15.00;;;;;;;;;;5051882;28;20131;-76
2023/03/02 12:23:29;;;;;;;22.13;14.75;;;;;;;;;;5052247;28;20064;-76
2023/03/02 12:26:04;;;;;;;21.98;14.82;;;;;;;;;;5051312;28;20041;-76
2023/03/02 12:28:36;;;;;;;21.95;15.02;;;;;;;;;;5052131;28;20102;-76
2023/03/02 12:31:05;;;;;;;24.20;14.48;;;;;;;;;;5051848;28;20134;-76
2023/03/02 12:33:31;;;;;;;19.67;13.98;;;;;;;;;;5051836;28;20048;-76
2023/03/02 12:36:03;;;;;;;21.13;15.70;;;;;;;;;;5035186;28;20815;-76
2023/03/02 12:38:35;;;;;;;19.48;14.50;;;;;;;;;;5051427;28;20048;-76
2023/03/02 12:41:01;;;;;;;19.75;14.23;;;;;;;;;;5035119;28;20045;-76
2023/03/02 12:43:32;;;;;;;19.55;14.13;;;;;;;;;;5051457;28;20044;-76
2023/03/02 12:46:17;;;;;;;18.73;13.80;;;;;;;;;;5034734;28;20076;-76
2023/03/02 12:48:50;;;;;;;20.42;13.73;;;;;;;;;;5068062;28;20483;-76
2023/03/02 12:51:29;;;;;;;18.48;13.68;;;;;;;;;;5052862;28;20072;-76
2023/03/02 12:54:05;;;;;;;17.83;13.05;;;;;;;;;;5084930;28;20146;-75
2023/03/02 12:56:32;;;;;;;17.85;14.00;;;;;;;;;;5052507;28;20055;-76
2023/03/02 12:58:58;;;;;;;19.10;12.70;;;;;;;;;;5051093;28;20044;-76
2023/03/02 13:01:26;;;;;;;18.45;13.40;;;;;;;;;;5039897;28;20077;-76
2023/03/02 13:03:52;;;;;;;18.40;13.00;;;;;;;;;;5051093;28;20037;-78
2023/03/02 13:06:19;;;;;;;17.60;12.48;;;;;;;;;;5034745;28;20106;-78
2023/03/02 13:08:56;;;;;;;17.67;13.00;;;;;;;;;;5051412;28;20498;-78
2023/03/02 13:11:26;;;;;;;16.70;12.48;;;;;;;;;;5084664;28;20044;-78
2023/03/02 13:13:52;;;;;;;16.60;12.48;;;;;;;;;;5034630;28;20364;-77
2023/03/02 13:16:26;;;;;;;16.80;12.55;;;;;;;;;;5052716;28;20604;-77
2023/03/02 13:18:56;;;;;;;16.92;11.52;;;;;;;;;;5052306;28;20033;-78
2023/03/02 13:21:32;;;;;;;19.02;12.13;;;;;;;;;;5034522;28;20554;-77
2023/03/02 13:23:58;;;;;;;;;;;;;;;;;;5051389;28;20402;-78
2023/03/02 13:26:32;;;;;;;17.25;11.75;;;;;;;;;;5052285;28;19917;-77
2023/03/02 13:29:02;;;;;;;17.20;11.77;;;;;;;;;;5050962;28;20487;-77
2023/03/02 13:31:28;;;;;;;18.33;12.02;;;;;;;;;;5051178;28;20041;-77
2023/03/02 13:33:56;;;;;;;18.83;12.13;;;;;;;;;;5051986;28;20041;-77
2023/03/02 13:36:24;;;;;;;19.58;12.00;;;;;;;;;;5053077;28;20045;-77
2023/03/02 13:38:54;;;;;;;20.10;12.25;;;;;;;;;;5055920;28;20060;-76
2023/03/02 13:41:24;;;;;;;15.35;10.07;;;;;;;;;;5054907;28;20048;-77
2023/03/02 13:43:50;;;;;;;18.80;10.75;;;;;;;;;;5056075;28;20041;-77
2023/03/02 13:46:17;;;;;;;22.95;10.48;;;;;;;;;;5054852;28;20060;-77
2023/03/02 13:48:59;;;;;;;18.85;10.82;;;;;;;;;;5054775;28;20052;-77
2023/03/02 13:51:28;;;;;;;17.73;10.23;;;;;;;;;;5054785;28;20041;-76
2023/03/02 13:53:55;;;;;;;17.17;9.75;;;;;;;;;;5038064;28;20120;-77
2023/03/02 13:56:24;;;;;;;21.27;11.65;;;;;;;;;;5055865;28;20479;-77
2023/03/02 13:58:50;;;;;;;18.95;11.05;;;;;;;;;;5054780;28;20029;-76
2023/03/02 14:01:16;;;;;;;19.30;10.63;;;;;;;;;;5022024;28;20033;-76
2023/03/02 14:03:42;;;;;;;17.17;9.63;;;;;;;;;;5054500;28;20033;-76
2023/03/02 14:06:08;;;;;;;18.20;9.90;;;;;;;;;;5028355;28;20053;-76
2023/03/02 14:08:35;;;;;;;16.92;9.90;;;;;;;;;;5046669;28;20037;-77
2023/03/02 14:11:02;;;;;;;16.90;8.93;;;;;;;;;;5045433;28;20119;-76
2023/03/02 14:13:42;;;;;;;18.70;9.48;;;;;;;;;;5055690;28;20554;-75
2023/03/02 14:16:15;;;;;;;15.57;8.77;;;;;;;;;;5054396;28;20049;-75
2023/03/02 14:18:41;;;;;;;18.08;8.52;;;;;;;;;;5054434;28;20033;-75
2023/03/02 14:21:18;;;;;;;17.13;9.25;;;;;;;;;;5054015;28;20099;-76